sensor_id;sensor_type;location;lat;lon;timestamp;temperature;humidity
6738;DHT22;3406;49.902;8.596;2023-07-24T00:00:20;22.00;56.60
6738;DHT22;3406;49.902;8.596;2023-07-24T00:02:47;22.00;56.50
6738;DHT22;3406;49.902;8.596;2023-07-24T00:05:13;22.00;56.60
6738;DHT22;3406;49.902;8.596;2023-07-24T00:07:40;22.00;56.60
6738;DHT22;3406;49.902;8.596;2023-07-24T00:10:08;22.00;56.50
6738;DHT22;3406;49.902;8.596;2023-07-24T00:12:35;22.00;56.50
6738;DHT22;3406;49.902;8.596;2023-07-24T00:15:02;22.00;56.50
6738;DHT22;3406;49.902;8.596;2023-07-24T00:17:28;22.00;56.50
6738;DHT22;3406;49.902;8.596;2023-07-24T00:19:55;22.00;56.50
6738;DHT22;3406;49.902;8.596;2023-07-24T00:22:22;22.00;56.60
6738;DHT22;3406;49.902;8.596;2023-07-24T00:24:48;22.00;56.60
6738;DHT22;3406;49.902;8.596;2023-07-24T00:27:16;21.90;56.50
6738;DHT22;3406;49.902;8.596;2023-07-24T00:29:43;21.90;56.60
6738;DHT22;3406;49.902;8.596;2023-07-24T00:32:10;21.90;56.60
6738;DHT22;3406;49.902;8.596;2023-07-24T00:34:36;21.90;56.70
6738;DHT22;3406;49.902;8.596;2023-07-24T00:37:03;21.90;56.60
6738;DHT22;3406;49.902;8.596;2023-07-24T00:39:30;21.80;56.60
6738;DHT22;3406;49.902;8.596;2023-07-24T00:41:57;21.80;56.60
6738;DHT22;3406;49.902;8.596;2023-07-24T00:44:25;21.80;56.60
6738;DHT22;3406;49.902;8.596;2023-07-24T00:46:51;21.80;56.60
6738;DHT22;3406;49.902;8.596;2023-07-24T00:49:19;21.80;56.60
6738;DHT22;3406;49.902;8.596;2023-07-24T00:51:46;21.80;56.60
6738;DHT22;3406;49.902;8.596;2023-07-24T00:54:14;21.80;56.50
6738;DHT22;3406;49.902;8.596;2023-07-24T00:56:43;21.80;56.50
6738;DHT22;3406;49.902;8.596;2023-07-24T00:59:11;21.80;56.50
6738;DHT22;3406;49.902;8.596;2023-07-24T01:01:40;21.80;56.60
6738;DHT22;3406;49.902;8.596;2023-07-24T01:04:08;21.80;56.70
6738;DHT22;3406;49.902;8.596;2023-07-24T01:06:35;21.80;56.70
6738;DHT22;3406;49.902;8.596;2023-07-24T01:09:01;21.80;56.70
6738;DHT22;3406;49.902;8.596;2023-07-24T01:11:32;21.70;56.70
6738;DHT22;3406;49.902;8.596;2023-07-24T01:14:04;21.70;56.80
6738;DHT22;3406;49.902;8.596;2023-07-24T01:16:37;21.70;56.90
6738;DHT22;3406;49.902;8.596;2023-07-24T01:19:12;21.70;56.90
6738;DHT22;3406;49.902;8.596;2023-07-24T01:21:45;21.60;56.80
6738;DHT22;3406;49.902;8.596;2023-07-24T01:24:24;21.70;56.80
6738;DHT22;3406;49.902;8.596;2023-07-24T01:26:56;21.70;56.80
6738;DHT22;3406;49.902;8.596;2023-07-24T01:29:23;21.70;56.80
6738;DHT22;3406;49.902;8.596;2023-07-24T01:31:50;21.60;56.70
6738;DHT22;3406;49.902;8.596;2023-07-24T01:34:16;21.70;56.70
6738;DHT22;3406;49.902;8.596;2023-07-24T01:36:43;21.70;56.70
6738;DHT22;3406;49.902;8.596;2023-07-24T01:39:10;21.70;56.60
6738;DHT22;3406;49.902;8.596;2023-07-24T01:41:37;21.70;56.60
6738;DHT22;3406;49.902;8.596;2023-07-24T01:44:06;21.70;56.60
6738;DHT22;3406;49.902;8.596;2023-07-24T01:46:33;21.70;56.60
6738;DHT22;3406;49.902;8.596;2023-07-24T01:48:59;21.70;56.60
6738;DHT22;3406;49.902;8.596;2023-07-24T01:51:26;21.70;56.60
6738;DHT22;3406;49.902;8.596;2023-07-24T01:53:53;21.70;56.60
6738;DHT22;3406;49.902;8.596;2023-07-24T01:56:19;21.60;56.50
6738;DHT22;3406;49.902;8.596;2023-07-24T01:58:46;21.60;56.50
6738;DHT22;3406;49.902;8.596;2023-07-24T02:01:14;21.60;56.60
6738;DHT22;3406;49.902;8.596;2023-07-24T02:03:41;21.60;56.60
6738;DHT22;3406;49.902;8.596;2023-07-24T02:06:07;21.60;56.50
6738;DHT22;3406;49.902;8.596;2023-07-24T02:08:34;21.60;56.50
6738;DHT22;3406;49.902;8.596;2023-07-24T02:11:00;21.60;56.50
6738;DHT22;3406;49.902;8.596;2023-07-24T02:13:27;21.50;56.50
6738;DHT22;3406;49.902;8.596;2023-07-24T02:15:54;21.50;56.50
6738;DHT22;3406;49.902;8.596;2023-07-24T02:18:22;21.50;56.50
6738;DHT22;3406;49.902;8.596;2023-07-24T02:20:49;21.50;56.50
6738;DHT22;3406;49.902;8.596;2023-07-24T02:23:15;21.60;56.50
6738;DHT22;3406;49.902;8.596;2023-07-24T02:25:42;21.50;56.40
6738;DHT22;3406;49.902;8.596;2023-07-24T02:28:09;21.50;56.40
6738;DHT22;3406;49.902;8.596;2023-07-24T02:30:38;21.50;56.40
6738;DHT22;3406;49.902;8.596;2023-07-24T02:33:04;21.50;56.40
6738;DHT22;3406;49.902;8.596;2023-07-24T02:35:38;21.50;56.50
6738;DHT22;3406;49.902;8.596;2023-07-24T02:38:05;21.40;56.50
6738;DHT22;3406;49.902;8.596;2023-07-24T02:40:32;21.30;56.50
6738;DHT22;3406;49.902;8.596;2023-07-24T02:42:58;21.30;56.60
6738;DHT22;3406;49.902;8.596;2023-07-24T02:45:25;21.30;56.70
6738;DHT22;3406;49.902;8.596;2023-07-24T02:47:52;21.20;56.80
6738;DHT22;3406;49.902;8.596;2023-07-24T02:50:18;21.10;56.90
6738;DHT22;3406;49.902;8.596;2023-07-24T02:52:46;21.10;57.10
6738;DHT22;3406;49.902;8.596;2023-07-24T02:55:13;21.00;57.10
6738;DHT22;3406;49.902;8.596;2023-07-24T02:57:39;21.00;57.20
6738;DHT22;3406;49.902;8.596;2023-07-24T03:00:07;21.00;57.30
6738;DHT22;3406;49.902;8.596;2023-07-24T03:02:34;20.90;57.40
6738;DHT22;3406;49.902;8.596;2023-07-24T03:05:01;20.90;57.40
6738;DHT22;3406;49.902;8.596;2023-07-24T03:07:27;20.80;57.40
6738;DHT22;3406;49.902;8.596;2023-07-24T03:09:55;20.80;57.50
6738;DHT22;3406;49.902;8.596;2023-07-24T03:12:22;20.70;57.60
6738;DHT22;3406;49.902;8.596;2023-07-24T03:14:49;20.70;57.60
6738;DHT22;3406;49.902;8.596;2023-07-24T03:17:16;20.70;57.70
6738;DHT22;3406;49.902;8.596;2023-07-24T03:19:42;20.70;57.90
6738;DHT22;3406;49.902;8.596;2023-07-24T03:22:09;20.60;57.80
6738;DHT22;3406;49.902;8.596;2023-07-24T03:24:36;20.60;57.80
6738;DHT22;3406;49.902;8.596;2023-07-24T03:27:04;20.60;57.90
6738;DHT22;3406;49.902;8.596;2023-07-24T03:29:30;20.60;58.00
6738;DHT22;3406;49.902;8.596;2023-07-24T03:31:57;20.50;58.00
6738;DHT22;3406;49.902;8.596;2023-07-24T03:34:24;20.50;58.20
6738;DHT22;3406;49.902;8.596;2023-07-24T03:36:50;20.50;58.30
6738;DHT22;3406;49.902;8.596;2023-07-24T03:39:17;20.40;58.40
6738;DHT22;3406;49.902;8.596;2023-07-24T03:41:44;20.30;58.50
6738;DHT22;3406;49.902;8.596;2023-07-24T03:44:11;20.30;58.60
6738;DHT22;3406;49.902;8.596;2023-07-24T03:46:38;20.20;58.70
6738;DHT22;3406;49.902;8.596;2023-07-24T03:49:05;20.20;58.90
6738;DHT22;3406;49.902;8.596;2023-07-24T03:51:31;20.10;58.90
6738;DHT22;3406;49.902;8.596;2023-07-24T03:53:58;20.10;59.00
6738;DHT22;3406;49.902;8.596;2023-07-24T03:56:25;20.10;59.10
6738;DHT22;3406;49.902;8.596;2023-07-24T03:58:52;20.10;59.10
6738;DHT22;3406;49.902;8.596;2023-07-24T04:01:21;20.20;59.20
6738;DHT22;3406;49.902;8.596;2023-07-24T04:03:47;20.10;59.20
6738;DHT22;3406;49.902;8.596;2023-07-24T04:06:14;20.10;59.50
6738;DHT22;3406;49.902;8.596;2023-07-24T04:08:40;20.10;59.30
6738;DHT22;3406;49.902;8.596;2023-07-24T04:11:07;20.10;59.40
6738;DHT22;3406;49.902;8.596;2023-07-24T04:13:34;20.10;59.40
6738;DHT22;3406;49.902;8.596;2023-07-24T04:16:00;20.20;59.50
6738;DHT22;3406;49.902;8.596;2023-07-24T04:18:28;20.20;59.50
6738;DHT22;3406;49.902;8.596;2023-07-24T04:20:55;20.20;59.50
6738;DHT22;3406;49.902;8.596;2023-07-24T04:23:22;20.20;59.60
6738;DHT22;3406;49.902;8.596;2023-07-24T04:25:49;20.30;59.70
6738;DHT22;3406;49.902;8.596;2023-07-24T04:28:16;20.30;59.70
6738;DHT22;3406;49.902;8.596;2023-07-24T04:30:42;20.30;59.60
6738;DHT22;3406;49.902;8.596;2023-07-24T04:33:09;20.40;59.70
6738;DHT22;3406;49.902;8.596;2023-07-24T04:35:37;20.40;59.60
6738;DHT22;3406;49.902;8.596;2023-07-24T04:38:04;20.50;59.70
6738;DHT22;3406;49.902;8.596;2023-07-24T04:40:30;20.50;59.70
6738;DHT22;3406;49.902;8.596;2023-07-24T04:42:57;20.50;59.70
6738;DHT22;3406;49.902;8.596;2023-07-24T04:45:24;20.60;59.90
6738;DHT22;3406;49.902;8.596;2023-07-24T04:47:51;20.60;59.80
6738;DHT22;3406;49.902;8.596;2023-07-24T04:50:17;20.60;59.80
6738;DHT22;3406;49.902;8.596;2023-07-24T04:52:45;20.70;59.90
6738;DHT22;3406;49.902;8.596;2023-07-24T04:55:12;20.70;59.80
6738;DHT22;3406;49.902;8.596;2023-07-24T04:57:38;20.80;59.90
6738;DHT22;3406;49.902;8.596;2023-07-24T05:00:06;20.80;59.80
6738;DHT22;3406;49.902;8.596;2023-07-24T05:02:33;20.80;59.90
6738;DHT22;3406;49.902;8.596;2023-07-24T05:05:00;20.80;59.90
6738;DHT22;3406;49.902;8.596;2023-07-24T05:07:26;20.80;60.00
6738;DHT22;3406;49.902;8.596;2023-07-24T05:09:54;20.80;60.00
6738;DHT22;3406;49.902;8.596;2023-07-24T05:12:21;20.80;60.00
6738;DHT22;3406;49.902;8.596;2023-07-24T05:14:48;20.80;60.10
6738;DHT22;3406;49.902;8.596;2023-07-24T05:17:14;20.80;60.30
6738;DHT22;3406;49.902;8.596;2023-07-24T05:19:41;20.90;60.40
6738;DHT22;3406;49.902;8.596;2023-07-24T05:22:08;20.90;60.40
6738;DHT22;3406;49.902;8.596;2023-07-24T05:24:35;20.90;60.40
6738;DHT22;3406;49.902;8.596;2023-07-24T05:27:04;21.00;60.40
6738;DHT22;3406;49.902;8.596;2023-07-24T05:29:31;21.10;60.60
6738;DHT22;3406;49.902;8.596;2023-07-24T05:31:57;21.10;60.60
6738;DHT22;3406;49.902;8.596;2023-07-24T05:34:24;21.10;60.60
6738;DHT22;3406;49.902;8.596;2023-07-24T05:36:51;21.20;60.70
6738;DHT22;3406;49.902;8.596;2023-07-24T05:39:17;21.30;60.90
6738;DHT22;3406;49.902;8.596;2023-07-24T05:41:44;21.30;61.00
6738;DHT22;3406;49.902;8.596;2023-07-24T05:44:12;21.30;61.10
6738;DHT22;3406;49.902;8.596;2023-07-24T05:46:39;21.30;61.10
6738;DHT22;3406;49.902;8.596;2023-07-24T05:49:05;21.40;61.30
6738;DHT22;3406;49.902;8.596;2023-07-24T05:51:32;21.40;61.40
6738;DHT22;3406;49.902;8.596;2023-07-24T05:53:58;21.40;61.50
6738;DHT22;3406;49.902;8.596;2023-07-24T05:56:25;21.50;61.60
6738;DHT22;3406;49.902;8.596;2023-07-24T05:58:52;21.50;61.70
6738;DHT22;3406;49.902;8.596;2023-07-24T06:01:20;21.60;61.90
6738;DHT22;3406;49.902;8.596;2023-07-24T06:03:46;21.60;62.00
6738;DHT22;3406;49.902;8.596;2023-07-24T06:06:13;21.60;62.20
6738;DHT22;3406;49.902;8.596;2023-07-24T06:08:40;21.60;62.30
6738;DHT22;3406;49.902;8.596;2023-07-24T06:11:06;21.70;62.40
6738;DHT22;3406;49.902;8.596;2023-07-24T06:13:33;21.70;63.30
6738;DHT22;3406;49.902;8.596;2023-07-24T06:15:59;21.70;62.60
6738;DHT22;3406;49.902;8.596;2023-07-24T06:18:27;21.80;62.60
6738;DHT22;3406;49.902;8.596;2023-07-24T06:20:54;21.80;62.70
6738;DHT22;3406;49.902;8.596;2023-07-24T06:23:21;21.80;62.70
6738;DHT22;3406;49.902;8.596;2023-07-24T06:25:47;21.90;63.00
6738;DHT22;3406;49.902;8.596;2023-07-24T06:28:14;21.90;62.90
6738;DHT22;3406;49.902;8.596;2023-07-24T06:30:41;22.00;62.90
6738;DHT22;3406;49.902;8.596;2023-07-24T06:33:07;22.00;62.70
6738;DHT22;3406;49.902;8.596;2023-07-24T06:35:35;22.10;62.70
6738;DHT22;3406;49.902;8.596;2023-07-24T06:38:02;22.20;62.70
6738;DHT22;3406;49.902;8.596;2023-07-24T06:40:29;22.30;62.70
6738;DHT22;3406;49.902;8.596;2023-07-24T06:42:55;22.40;62.60
6738;DHT22;3406;49.902;8.596;2023-07-24T06:45:22;22.40;62.50
6738;DHT22;3406;49.902;8.596;2023-07-24T06:47:49;22.40;62.40
6738;DHT22;3406;49.902;8.596;2023-07-24T06:50:16;22.50;62.40
6738;DHT22;3406;49.902;8.596;2023-07-24T06:52:44;22.60;62.30
6738;DHT22;3406;49.902;8.596;2023-07-24T06:55:10;22.60;62.30
6738;DHT22;3406;49.902;8.596;2023-07-24T06:57:37;22.60;62.20
6738;DHT22;3406;49.902;8.596;2023-07-24T07:00:05;22.70;62.20
6738;DHT22;3406;49.902;8.596;2023-07-24T07:02:34;22.90;62.00
6738;DHT22;3406;49.902;8.596;2023-07-24T07:05:01;23.20;61.80
6738;DHT22;3406;49.902;8.596;2023-07-24T07:07:27;23.30;61.40
6738;DHT22;3406;49.902;8.596;2023-07-24T07:09:55;23.30;61.10
6738;DHT22;3406;49.902;8.596;2023-07-24T07:12:22;23.40;61.00
6738;DHT22;3406;49.902;8.596;2023-07-24T07:14:48;23.50;61.00
6738;DHT22;3406;49.902;8.596;2023-07-24T07:17:15;23.60;60.70
6738;DHT22;3406;49.902;8.596;2023-07-24T07:19:42;23.70;60.60
6738;DHT22;3406;49.902;8.596;2023-07-24T07:22:08;23.80;60.50
6738;DHT22;3406;49.902;8.596;2023-07-24T07:24:35;24.10;60.20
6738;DHT22;3406;49.902;8.596;2023-07-24T07:27:04;24.40;59.80
6738;DHT22;3406;49.902;8.596;2023-07-24T07:29:30;24.60;59.40
6738;DHT22;3406;49.902;8.596;2023-07-24T07:31:57;24.80;59.10
6738;DHT22;3406;49.902;8.596;2023-07-24T07:34:24;24.90;58.60
6738;DHT22;3406;49.902;8.596;2023-07-24T07:36:50;25.00;58.30
6738;DHT22;3406;49.902;8.596;2023-07-24T07:39:17;25.10;58.10
6738;DHT22;3406;49.902;8.596;2023-07-24T07:41:44;25.20;57.60
6738;DHT22;3406;49.902;8.596;2023-07-24T07:44:12;25.20;57.50
6738;DHT22;3406;49.902;8.596;2023-07-24T07:46:38;25.20;57.50
6738;DHT22;3406;49.902;8.596;2023-07-24T07:49:05;25.20;57.50
6738;DHT22;3406;49.902;8.596;2023-07-24T07:51:32;25.20;57.40
6738;DHT22;3406;49.902;8.596;2023-07-24T07:53:58;25.30;57.20
6738;DHT22;3406;49.902;8.596;2023-07-24T07:56:25;25.30;57.10
6738;DHT22;3406;49.902;8.596;2023-07-24T07:58:51;25.40;57.00
6738;DHT22;3406;49.902;8.596;2023-07-24T08:01:21;25.40;56.90
6738;DHT22;3406;49.902;8.596;2023-07-24T08:03:47;25.40;56.70
6738;DHT22;3406;49.902;8.596;2023-07-24T08:06:14;25.40;56.60
6738;DHT22;3406;49.902;8.596;2023-07-24T08:08:40;25.40;56.60
6738;DHT22;3406;49.902;8.596;2023-07-24T08:11:07;25.40;56.50
6738;DHT22;3406;49.902;8.596;2023-07-24T08:13:34;25.30;56.30
6738;DHT22;3406;49.902;8.596;2023-07-24T08:16:01;25.30;56.30
6738;DHT22;3406;49.902;8.596;2023-07-24T08:18:30;25.20;56.40
6738;DHT22;3406;49.902;8.596;2023-07-24T08:20:56;25.20;56.50
6738;DHT22;3406;49.902;8.596;2023-07-24T08:23:23;25.20;56.60
6738;DHT22;3406;49.902;8.596;2023-07-24T08:25:53;25.20;56.40
6738;DHT22;3406;49.902;8.596;2023-07-24T08:28:19;25.30;56.30
6738;DHT22;3406;49.902;8.596;2023-07-24T08:30:46;25.30;56.10
6738;DHT22;3406;49.902;8.596;2023-07-24T08:33:13;25.30;56.00
6738;DHT22;3406;49.902;8.596;2023-07-24T08:35:41;25.40;55.80
6738;DHT22;3406;49.902;8.596;2023-07-24T08:38:07;25.40;55.60
6738;DHT22;3406;49.902;8.596;2023-07-24T08:40:34;25.50;55.70
6738;DHT22;3406;49.902;8.596;2023-07-24T08:43:01;25.50;55.50
6738;DHT22;3406;49.902;8.596;2023-07-24T08:45:28;25.60;55.50
6738;DHT22;3406;49.902;8.596;2023-07-24T08:47:55;25.60;55.30
6738;DHT22;3406;49.902;8.596;2023-07-24T08:50:23;25.60;55.40
6738;DHT22;3406;49.902;8.596;2023-07-24T08:52:52;25.60;55.30
6738;DHT22;3406;49.902;8.596;2023-07-24T08:55:20;25.60;55.20
6738;DHT22;3406;49.902;8.596;2023-07-24T08:57:47;25.60;55.20
6738;DHT22;3406;49.902;8.596;2023-07-24T09:00:14;25.50;55.20
6738;DHT22;3406;49.902;8.596;2023-07-24T09:02:41;25.50;55.30
6738;DHT22;3406;49.902;8.596;2023-07-24T09:05:08;25.50;55.30
6738;DHT22;3406;49.902;8.596;2023-07-24T09:07:35;25.50;55.20
6738;DHT22;3406;49.902;8.596;2023-07-24T09:10:04;25.50;55.00
6738;DHT22;3406;49.902;8.596;2023-07-24T09:12:31;25.60;54.90
6738;DHT22;3406;49.902;8.596;2023-07-24T09:15:02;25.60;54.80
6738;DHT22;3406;49.902;8.596;2023-07-24T09:17:29;25.50;54.90
6738;DHT22;3406;49.902;8.596;2023-07-24T09:19:57;25.40;54.90
6738;DHT22;3406;49.902;8.596;2023-07-24T09:22:23;25.30;55.10
6738;DHT22;3406;49.902;8.596;2023-07-24T09:24:53;25.20;55.60
6738;DHT22;3406;49.902;8.596;2023-07-24T09:27:24;25.00;56.30
6738;DHT22;3406;49.902;8.596;2023-07-24T09:29:51;24.90;56.80
6738;DHT22;3406;49.902;8.596;2023-07-24T09:32:19;24.80;57.30
6738;DHT22;3406;49.902;8.596;2023-07-24T09:34:46;24.70;57.60
6738;DHT22;3406;49.902;8.596;2023-07-24T09:37:23;24.60;57.60
6738;DHT22;3406;49.902;8.596;2023-07-24T09:39:49;24.60;57.90
6738;DHT22;3406;49.902;8.596;2023-07-24T09:42:16;24.60;58.00
6738;DHT22;3406;49.902;8.596;2023-07-24T09:44:44;24.70;58.00
6738;DHT22;3406;49.902;8.596;2023-07-24T09:47:11;24.80;57.90
6738;DHT22;3406;49.902;8.596;2023-07-24T09:49:38;24.90;57.70
6738;DHT22;3406;49.902;8.596;2023-07-24T09:52:09;25.10;57.60
6738;DHT22;3406;49.902;8.596;2023-07-24T09:54:41;25.20;57.30
6738;DHT22;3406;49.902;8.596;2023-07-24T09:57:11;25.30;57.10
6738;DHT22;3406;49.902;8.596;2023-07-24T09:59:40;25.50;56.90
6738;DHT22;3406;49.902;8.596;2023-07-24T10:02:10;25.70;56.70
6738;DHT22;3406;49.902;8.596;2023-07-24T10:04:37;25.60;56.30
6738;DHT22;3406;49.902;8.596;2023-07-24T10:07:06;25.60;56.20
6738;DHT22;3406;49.902;8.596;2023-07-24T10:09:33;25.50;56.30
6738;DHT22;3406;49.902;8.596;2023-07-24T10:12:00;25.50;56.40
6738;DHT22;3406;49.902;8.596;2023-07-24T10:14:29;25.50;56.50
6738;DHT22;3406;49.902;8.596;2023-07-24T10:16:56;25.50;56.50
6738;DHT22;3406;49.902;8.596;2023-07-24T10:19:24;25.50;56.40
6738;DHT22;3406;49.902;8.596;2023-07-24T10:22:01;25.50;56.20
6738;DHT22;3406;49.902;8.596;2023-07-24T10:24:29;25.50;56.10
6738;DHT22;3406;49.902;8.596;2023-07-24T10:26:56;25.50;56.10
6738;DHT22;3406;49.902;8.596;2023-07-24T10:29:23;25.50;56.20
6738;DHT22;3406;49.902;8.596;2023-07-24T10:31:53;25.60;56.20
6738;DHT22;3406;49.902;8.596;2023-07-24T10:34:20;25.60;56.30
6738;DHT22;3406;49.902;8.596;2023-07-24T10:36:48;25.60;56.40
6738;DHT22;3406;49.902;8.596;2023-07-24T10:39:16;25.80;56.50
6738;DHT22;3406;49.902;8.596;2023-07-24T10:41:44;25.90;56.40
6738;DHT22;3406;49.902;8.596;2023-07-24T10:44:11;26.10;56.40
6738;DHT22;3406;49.902;8.596;2023-07-24T10:46:40;26.10;56.30
6738;DHT22;3406;49.902;8.596;2023-07-24T10:49:08;26.20;56.40
6738;DHT22;3406;49.902;8.596;2023-07-24T10:51:35;26.30;56.50
6738;DHT22;3406;49.902;8.596;2023-07-24T10:54:05;26.20;56.50
6738;DHT22;3406;49.902;8.596;2023-07-24T10:56:32;26.30;56.50
6738;DHT22;3406;49.902;8.596;2023-07-24T10:59:03;26.30;56.30
6738;DHT22;3406;49.902;8.596;2023-07-24T11:01:31;26.40;56.20
6738;DHT22;3406;49.902;8.596;2023-07-24T11:03:58;26.60;56.20
6738;DHT22;3406;49.902;8.596;2023-07-24T11:06:26;26.70;56.10
6738;DHT22;3406;49.902;8.596;2023-07-24T11:08:53;26.80;55.90
6738;DHT22;3406;49.902;8.596;2023-07-24T11:11:28;26.90;55.70
6738;DHT22;3406;49.902;8.596;2023-07-24T11:13:54;26.90;55.00
6738;DHT22;3406;49.902;8.596;2023-07-24T11:16:22;26.90;54.40
6738;DHT22;3406;49.902;8.596;2023-07-24T11:18:50;27.00;54.30
6738;DHT22;3406;49.902;8.596;2023-07-24T11:21:18;27.00;54.00
6738;DHT22;3406;49.902;8.596;2023-07-24T11:23:49;27.10;53.80
6738;DHT22;3406;49.902;8.596;2023-07-24T11:26:18;27.20;53.30
6738;DHT22;3406;49.902;8.596;2023-07-24T11:28:46;27.30;53.00
6738;DHT22;3406;49.902;8.596;2023-07-24T11:31:13;27.30;52.80
6738;DHT22;3406;49.902;8.596;2023-07-24T11:33:41;27.20;52.80
6738;DHT22;3406;49.902;8.596;2023-07-24T11:36:08;27.20;52.90
6738;DHT22;3406;49.902;8.596;2023-07-24T11:38:36;27.10;53.00
6738;DHT22;3406;49.902;8.596;2023-07-24T11:41:04;27.20;53.10
6738;DHT22;3406;49.902;8.596;2023-07-24T11:43:31;27.30;53.30
6738;DHT22;3406;49.902;8.596;2023-07-24T11:45:59;27.40;53.00
6738;DHT22;3406;49.902;8.596;2023-07-24T11:48:25;27.40;52.90
6738;DHT22;3406;49.902;8.596;2023-07-24T11:50:54;27.40;53.10
6738;DHT22;3406;49.902;8.596;2023-07-24T11:53:23;27.40;53.40
6738;DHT22;3406;49.902;8.596;2023-07-24T11:55:50;27.30;53.60
6738;DHT22;3406;49.902;8.596;2023-07-24T11:58:18;27.20;53.70
6738;DHT22;3406;49.902;8.596;2023-07-24T12:00:45;27.20;53.70
6738;DHT22;3406;49.902;8.596;2023-07-24T12:03:14;27.40;53.70
6738;DHT22;3406;49.902;8.596;2023-07-24T12:05:41;27.60;52.20
6738;DHT22;3406;49.902;8.596;2023-07-24T12:08:08;27.80;50.50
6738;DHT22;3406;49.902;8.596;2023-07-24T12:10:37;27.80;49.10
6738;DHT22;3406;49.902;8.596;2023-07-24T12:13:05;27.70;48.50
6738;DHT22;3406;49.902;8.596;2023-07-24T12:15:31;27.70;48.40
6738;DHT22;3406;49.902;8.596;2023-07-24T12:17:59;27.60;48.20
6738;DHT22;3406;49.902;8.596;2023-07-24T12:20:27;27.60;48.20
6738;DHT22;3406;49.902;8.596;2023-07-24T12:22:55;27.70;48.20
6738;DHT22;3406;49.902;8.596;2023-07-24T12:25:22;27.70;48.20
6738;DHT22;3406;49.902;8.596;2023-07-24T12:27:49;27.80;48.50
6738;DHT22;3406;49.902;8.596;2023-07-24T12:30:15;27.80;48.40
6738;DHT22;3406;49.902;8.596;2023-07-24T12:32:44;27.70;48.30
6738;DHT22;3406;49.902;8.596;2023-07-24T12:35:11;27.60;48.60
6738;DHT22;3406;49.902;8.596;2023-07-24T12:37:39;27.60;48.90
6738;DHT22;3406;49.902;8.596;2023-07-24T12:40:08;27.60;49.10
6738;DHT22;3406;49.902;8.596;2023-07-24T12:42:35;27.60;48.80
6738;DHT22;3406;49.902;8.596;2023-07-24T12:45:01;27.60;48.80
6738;DHT22;3406;49.902;8.596;2023-07-24T12:47:29;27.60;48.80
6738;DHT22;3406;49.902;8.596;2023-07-24T12:49:56;27.80;48.80
6738;DHT22;3406;49.902;8.596;2023-07-24T12:52:23;28.00;48.30
6738;DHT22;3406;49.902;8.596;2023-07-24T12:54:53;27.90;48.40
6738;DHT22;3406;49.902;8.596;2023-07-24T12:57:19;28.00;49.00
6738;DHT22;3406;49.902;8.596;2023-07-24T12:59:46;28.00;49.80
6738;DHT22;3406;49.902;8.596;2023-07-24T13:02:13;28.00;50.50
6738;DHT22;3406;49.902;8.596;2023-07-24T13:04:39;28.00;50.80
6738;DHT22;3406;49.902;8.596;2023-07-24T13:07:06;28.10;50.60
6738;DHT22;3406;49.902;8.596;2023-07-24T13:09:33;28.20;50.60
6738;DHT22;3406;49.902;8.596;2023-07-24T13:12:01;28.10;50.70
6738;DHT22;3406;49.902;8.596;2023-07-24T13:14:27;28.10;50.90
6738;DHT22;3406;49.902;8.596;2023-07-24T13:16:54;28.00;50.80
6738;DHT22;3406;49.902;8.596;2023-07-24T13:19:21;27.90;51.10
6738;DHT22;3406;49.902;8.596;2023-07-24T13:21:48;27.80;51.30
6738;DHT22;3406;49.902;8.596;2023-07-24T13:24:14;27.60;51.40
6738;DHT22;3406;49.902;8.596;2023-07-24T13:26:41;27.50;51.60
6738;DHT22;3406;49.902;8.596;2023-07-24T13:29:09;27.30;52.00
6738;DHT22;3406;49.902;8.596;2023-07-24T13:31:36;27.10;52.50
6738;DHT22;3406;49.902;8.596;2023-07-24T13:34:03;27.00;53.00
6738;DHT22;3406;49.902;8.596;2023-07-24T13:36:29;26.80;53.60
6738;DHT22;3406;49.902;8.596;2023-07-24T13:38:56;26.60;54.50
6738;DHT22;3406;49.902;8.596;2023-07-24T13:41:25;26.40;55.90
6738;DHT22;3406;49.902;8.596;2023-07-24T13:43:52;26.30;57.20
6738;DHT22;3406;49.902;8.596;2023-07-24T13:46:19;26.10;57.70
6738;DHT22;3406;49.902;8.596;2023-07-24T13:48:49;26.20;58.50
6738;DHT22;3406;49.902;8.596;2023-07-24T13:51:16;26.20;58.90
6738;DHT22;3406;49.902;8.596;2023-07-24T13:53:45;26.10;59.20
6738;DHT22;3406;49.902;8.596;2023-07-24T13:56:13;26.00;59.80
6738;DHT22;3406;49.902;8.596;2023-07-24T13:58:40;25.70;60.60
6738;DHT22;3406;49.902;8.596;2023-07-24T14:01:07;25.40;62.00
6738;DHT22;3406;49.902;8.596;2023-07-24T14:03:35;25.40;64.10
6738;DHT22;3406;49.902;8.596;2023-07-24T14:06:01;25.40;63.80
6738;DHT22;3406;49.902;8.596;2023-07-24T14:08:28;25.40;62.10
6738;DHT22;3406;49.902;8.596;2023-07-24T14:10:55;25.30;60.90
6738;DHT22;3406;49.902;8.596;2023-07-24T14:13:21;25.10;60.10
6738;DHT22;3406;49.902;8.596;2023-07-24T14:15:48;24.80;60.20
6738;DHT22;3406;49.902;8.596;2023-07-24T14:18:15;24.50;61.00
6738;DHT22;3406;49.902;8.596;2023-07-24T14:20:43;24.30;62.20
6738;DHT22;3406;49.902;8.596;2023-07-24T14:23:09;24.30;63.30
6738;DHT22;3406;49.902;8.596;2023-07-24T14:25:36;24.30;64.00
6738;DHT22;3406;49.902;8.596;2023-07-24T14:28:02;24.30;64.30
6738;DHT22;3406;49.902;8.596;2023-07-24T14:30:29;24.50;64.90
6738;DHT22;3406;49.902;8.596;2023-07-24T14:32:56;24.70;64.70
6738;DHT22;3406;49.902;8.596;2023-07-24T14:35:23;25.10;64.40
6738;DHT22;3406;49.902;8.596;2023-07-24T14:37:51;25.50;63.90
6738;DHT22;3406;49.902;8.596;2023-07-24T14:40:18;25.80;63.30
6738;DHT22;3406;49.902;8.596;2023-07-24T14:42:45;26.10;62.80
6738;DHT22;3406;49.902;8.596;2023-07-24T14:45:12;26.20;62.30
6738;DHT22;3406;49.902;8.596;2023-07-24T14:47:38;26.40;62.10
6738;DHT22;3406;49.902;8.596;2023-07-24T14:50:06;26.50;61.30
6738;DHT22;3406;49.902;8.596;2023-07-24T14:52:33;26.50;61.00
6738;DHT22;3406;49.902;8.596;2023-07-24T14:55:01;26.60;61.20
6738;DHT22;3406;49.902;8.596;2023-07-24T14:57:28;26.60;61.00
6738;DHT22;3406;49.902;8.596;2023-07-24T14:59:54;26.80;60.90
6738;DHT22;3406;49.902;8.596;2023-07-24T15:02:21;26.80;60.10
6738;DHT22;3406;49.902;8.596;2023-07-24T15:04:48;26.90;59.90
6738;DHT22;3406;49.902;8.596;2023-07-24T15:07:14;26.90;59.30
6738;DHT22;3406;49.902;8.596;2023-07-24T15:09:42;26.80;59.20
6738;DHT22;3406;49.902;8.596;2023-07-24T15:12:10;26.80;58.80
6738;DHT22;3406;49.902;8.596;2023-07-24T15:14:36;26.80;58.80
6738;DHT22;3406;49.902;8.596;2023-07-24T15:17:03;26.80;58.60
6738;DHT22;3406;49.902;8.596;2023-07-24T15:19:30;26.90;58.50
6738;DHT22;3406;49.902;8.596;2023-07-24T15:21:57;27.00;58.10
6738;DHT22;3406;49.902;8.596;2023-07-24T15:24:23;27.00;57.80
6738;DHT22;3406;49.902;8.596;2023-07-24T15:26:50;26.90;57.60
6738;DHT22;3406;49.902;8.596;2023-07-24T15:29:18;26.70;57.70
6738;DHT22;3406;49.902;8.596;2023-07-24T15:31:45;26.60;57.80
6738;DHT22;3406;49.902;8.596;2023-07-24T15:34:11;26.70;57.80
6738;DHT22;3406;49.902;8.596;2023-07-24T15:36:38;26.80;57.40
6738;DHT22;3406;49.902;8.596;2023-07-24T15:39:05;26.90;57.00
6738;DHT22;3406;49.902;8.596;2023-07-24T15:41:31;27.00;56.80
6738;DHT22;3406;49.902;8.596;2023-07-24T15:43:58;27.10;56.20
6738;DHT22;3406;49.902;8.596;2023-07-24T15:46:26;27.10;55.50
6738;DHT22;3406;49.902;8.596;2023-07-24T15:48:55;26.90;55.50
6738;DHT22;3406;49.902;8.596;2023-07-24T15:51:22;26.60;55.60
6738;DHT22;3406;49.902;8.596;2023-07-24T15:53:48;26.40;56.10
6738;DHT22;3406;49.902;8.596;2023-07-24T15:56:15;26.30;56.40
6738;DHT22;3406;49.902;8.596;2023-07-24T15:58:42;26.30;56.60
6738;DHT22;3406;49.902;8.596;2023-07-24T16:01:09;26.30;56.60